sensor_id;sensor_type;location;lat;lon;timestamp;temperature;humidity
35497;DHT22;21609;49.298;6.844;2023-01-04T00:01:41;17.50;55.30
35497;DHT22;21609;49.298;6.844;2023-01-04T00:04:08;17.50;55.30
35497;DHT22;21609;49.298;6.844;2023-01-04T00:06:34;17.50;55.30
35497;DHT22;21609;49.298;6.844;2023-01-04T00:08:59;17.50;55.30
35497;DHT22;21609;49.298;6.844;2023-01-04T00:11:25;17.50;55.30
35497;DHT22;21609;49.298;6.844;2023-01-04T00:13:55;17.50;55.30
35497;DHT22;21609;49.298;6.844;2023-01-04T00:16:22;17.50;55.30
35497;DHT22;21609;49.298;6.844;2023-01-04T00:18:49;17.40;55.30
35497;DHT22;21609;49.298;6.844;2023-01-04T00:21:21;17.40;55.30
35497;DHT22;21609;49.298;6.844;2023-01-04T00:23:48;17.40;55.30
35497;DHT22;21609;49.298;6.844;2023-01-04T00:26:17;17.40;55.30
35497;DHT22;21609;49.298;6.844;2023-01-04T00:28:44;17.40;55.30
35497;DHT22;21609;49.298;6.844;2023-01-04T00:31:12;17.40;55.30
35497;DHT22;21609;49.298;6.844;2023-01-04T00:33:38;17.40;55.30
35497;DHT22;21609;49.298;6.844;2023-01-04T00:36:05;17.40;55.30
35497;DHT22;21609;49.298;6.844;2023-01-04T00:38:32;17.40;55.40
35497;DHT22;21609;49.298;6.844;2023-01-04T00:40:59;17.40;55.40
35497;DHT22;21609;49.298;6.844;2023-01-04T00:43:25;17.40;55.40
35497;DHT22;21609;49.298;6.844;2023-01-04T00:45:51;17.30;55.30
35497;DHT22;21609;49.298;6.844;2023-01-04T00:48:16;17.30;55.30
35497;DHT22;21609;49.298;6.844;2023-01-04T00:50:45;17.30;55.30
35497;DHT22;21609;49.298;6.844;2023-01-04T00:53:12;17.30;55.30
35497;DHT22;21609;49.298;6.844;2023-01-04T00:55:38;17.30;55.30
35497;DHT22;21609;49.298;6.844;2023-01-04T00:58:03;17.30;55.30
35497;DHT22;21609;49.298;6.844;2023-01-04T01:00:29;17.30;55.30
35497;DHT22;21609;49.298;6.844;2023-01-04T01:02:55;17.30;55.30
35497;DHT22;21609;49.298;6.844;2023-01-04T01:05:20;17.30;55.40
35497;DHT22;21609;49.298;6.844;2023-01-04T01:07:46;17.30;55.40
35497;DHT22;21609;49.298;6.844;2023-01-04T01:10:11;17.30;55.30
35497;DHT22;21609;49.298;6.844;2023-01-04T01:12:37;17.20;55.30
35497;DHT22;21609;49.298;6.844;2023-01-04T01:15:03;17.20;55.30
35497;DHT22;21609;49.298;6.844;2023-01-04T01:17:28;17.20;55.30
35497;DHT22;21609;49.298;6.844;2023-01-04T01:19:54;17.20;55.40
35497;DHT22;21609;49.298;6.844;2023-01-04T01:22:19;17.20;55.40
35497;DHT22;21609;49.298;6.844;2023-01-04T01:24:45;17.20;55.30
35497;DHT22;21609;49.298;6.844;2023-01-04T01:27:11;17.20;55.30
35497;DHT22;21609;49.298;6.844;2023-01-04T01:29:36;17.20;55.30
35497;DHT22;21609;49.298;6.844;2023-01-04T01:32:02;17.20;55.30
35497;DHT22;21609;49.298;6.844;2023-01-04T01:34:27;17.20;55.30
35497;DHT22;21609;49.298;6.844;2023-01-04T01:36:53;17.20;55.30
35497;DHT22;21609;49.298;6.844;2023-01-04T01:39:19;17.20;55.40
35497;DHT22;21609;49.298;6.844;2023-01-04T01:41:44;17.20;55.40
35497;DHT22;21609;49.298;6.844;2023-01-04T01:49:38;17.10;55.30
35497;DHT22;21609;49.298;6.844;2023-01-04T01:52:12;17.10;55.40
35497;DHT22;21609;49.298;6.844;2023-01-04T01:54:42;17.10;55.30
35497;DHT22;21609;49.298;6.844;2023-01-04T01:57:10;17.10;55.30
35497;DHT22;21609;49.298;6.844;2023-01-04T01:59:39;17.10;55.30
35497;DHT22;21609;49.298;6.844;2023-01-04T02:02:07;17.10;55.30
35497;DHT22;21609;49.298;6.844;2023-01-04T02:04:34;17.10;55.30
35497;DHT22;21609;49.298;6.844;2023-01-04T02:07:01;17.00;55.30
35497;DHT22;21609;49.298;6.844;2023-01-04T02:09:29;17.10;55.30
35497;DHT22;21609;49.298;6.844;2023-01-04T02:11:55;17.00;55.30
35497;DHT22;21609;49.298;6.844;2023-01-04T02:14:21;17.10;55.30
35497;DHT22;21609;49.298;6.844;2023-01-04T02:22:47;17.00;55.30
35497;DHT22;21609;49.298;6.844;2023-01-04T02:25:41;17.00;55.30
35497;DHT22;21609;49.298;6.844;2023-01-04T02:33:11;17.00;55.40
35497;DHT22;21609;49.298;6.844;2023-01-04T02:38:52;17.00;55.40
35497;DHT22;21609;49.298;6.844;2023-01-04T02:44:07;17.00;55.30
35497;DHT22;21609;49.298;6.844;2023-01-04T02:47:13;17.00;55.40
35497;DHT22;21609;49.298;6.844;2023-01-04T02:49:40;17.00;55.40
35497;DHT22;21609;49.298;6.844;2023-01-04T02:52:25;17.00;55.40
35497;DHT22;21609;49.298;6.844;2023-01-04T02:54:53;16.90;55.30
35497;DHT22;21609;49.298;6.844;2023-01-04T02:57:52;17.00;55.50
35497;DHT22;21609;49.298;6.844;2023-01-04T03:00:36;16.90;55.40
35497;DHT22;21609;49.298;6.844;2023-01-04T03:04:17;16.90;55.30
35497;DHT22;21609;49.298;6.844;2023-01-04T03:06:41;16.90;55.40
35497;DHT22;21609;49.298;6.844;2023-01-04T03:09:15;16.90;55.40
35497;DHT22;21609;49.298;6.844;2023-01-04T03:11:44;16.90;55.40
35497;DHT22;21609;49.298;6.844;2023-01-04T03:14:33;16.90;55.40
35497;DHT22;21609;49.298;6.844;2023-01-04T03:17:04;16.90;55.40
35497;DHT22;21609;49.298;6.844;2023-01-04T03:19:32;16.90;55.40
35497;DHT22;21609;49.298;6.844;2023-01-04T03:22:36;16.90;55.40
35497;DHT22;21609;49.298;6.844;2023-01-04T03:25:30;16.90;55.40
35497;DHT22;21609;49.298;6.844;2023-01-04T03:28:16;16.80;55.30
35497;DHT22;21609;49.298;6.844;2023-01-04T03:31:11;16.80;55.30
35497;DHT22;21609;49.298;6.844;2023-01-04T03:33:57;16.80;55.40
35497;DHT22;21609;49.298;6.844;2023-01-04T03:36:47;16.80;55.40
35497;DHT22;21609;49.298;6.844;2023-01-04T03:42:21;16.80;55.40
35497;DHT22;21609;49.298;6.844;2023-01-04T03:48:24;16.80;55.40
35497;DHT22;21609;49.298;6.844;2023-01-04T03:53:27;16.80;55.40
35497;DHT22;21609;49.298;6.844;2023-01-04T03:55:55;16.80;55.40
35497;DHT22;21609;49.298;6.844;2023-01-04T03:58:24;16.80;55.40
35497;DHT22;21609;49.298;6.844;2023-01-04T04:00:50;16.80;55.40
35497;DHT22;21609;49.298;6.844;2023-01-04T04:03:15;16.80;55.40
35497;DHT22;21609;49.298;6.844;2023-01-04T04:05:43;16.80;55.50
35497;DHT22;21609;49.298;6.844;2023-01-04T04:08:27;16.80;55.50
35497;DHT22;21609;49.298;6.844;2023-01-04T04:10:58;16.70;55.40
35497;DHT22;21609;49.298;6.844;2023-01-04T04:13:45;16.70;55.40
35497;DHT22;21609;49.298;6.844;2023-01-04T04:16:11;16.70;55.40
35497;DHT22;21609;49.298;6.844;2023-01-04T04:18:36;16.70;55.40
35497;DHT22;21609;49.298;6.844;2023-01-04T04:21:02;16.70;55.40
35497;DHT22;21609;49.298;6.844;2023-01-04T04:23:27;16.70;55.40
35497;DHT22;21609;49.298;6.844;2023-01-04T04:25:53;16.70;55.40
35497;DHT22;21609;49.298;6.844;2023-01-04T04:28:19;16.70;55.40
35497;DHT22;21609;49.298;6.844;2023-01-04T04:30:44;16.70;55.40
35497;DHT22;21609;49.298;6.844;2023-01-04T04:33:13;16.70;55.40
35497;DHT22;21609;49.298;6.844;2023-01-04T04:35:38;16.70;55.40
35497;DHT22;21609;49.298;6.844;2023-01-04T04:38:04;16.70;55.40
35497;DHT22;21609;49.298;6.844;2023-01-04T04:40:29;16.70;55.40
35497;DHT22;21609;49.298;6.844;2023-01-04T04:43:13;16.70;55.40
35497;DHT22;21609;49.298;6.844;2023-01-04T04:45:39;16.70;55.40
35497;DHT22;21609;49.298;6.844;2023-01-04T04:48:04;16.70;55.40
35497;DHT22;21609;49.298;6.844;2023-01-04T04:50:30;16.60;55.40
35497;DHT22;21609;49.298;6.844;2023-01-04T04:52:55;16.70;55.40
35497;DHT22;21609;49.298;6.844;2023-01-04T04:55:21;16.60;55.40
35497;DHT22;21609;49.298;6.844;2023-01-04T04:57:47;16.60;55.40
35497;DHT22;21609;49.298;6.844;2023-01-04T05:00:13;16.60;55.40
35497;DHT22;21609;49.298;6.844;2023-01-04T05:02:38;16.60;55.40
35497;DHT22;21609;49.298;6.844;2023-01-04T05:05:04;16.60;55.50
35497;DHT22;21609;49.298;6.844;2023-01-04T05:07:30;16.60;55.40
35497;DHT22;21609;49.298;6.844;2023-01-04T05:09:55;16.60;55.40
35497;DHT22;21609;49.298;6.844;2023-01-04T05:12:21;16.60;55.40
35497;DHT22;21609;49.298;6.844;2023-01-04T05:15:05;16.60;55.40
35497;DHT22;21609;49.298;6.844;2023-01-04T05:17:31;16.60;55.40
35497;DHT22;21609;49.298;6.844;2023-01-04T05:19:57;16.60;55.40
35497;DHT22;21609;49.298;6.844;2023-01-04T05:22:22;16.60;55.40
35497;DHT22;21609;49.298;6.844;2023-01-04T05:24:48;16.60;55.40
35497;DHT22;21609;49.298;6.844;2023-01-04T05:27:13;16.60;55.40
35497;DHT22;21609;49.298;6.844;2023-01-04T05:29:39;16.60;55.40
35497;DHT22;21609;49.298;6.844;2023-01-04T05:32:23;16.50;55.40
35497;DHT22;21609;49.298;6.844;2023-01-04T05:34:48;16.60;55.40
35497;DHT22;21609;49.298;6.844;2023-01-04T05:37:14;16.50;55.40
35497;DHT22;21609;49.298;6.844;2023-01-04T05:39:39;16.50;55.40
35497;DHT22;21609;49.298;6.844;2023-01-04T05:42:05;16.50;55.40
35497;DHT22;21609;49.298;6.844;2023-01-04T05:44:49;16.50;55.40
35497;DHT22;21609;49.298;6.844;2023-01-04T05:47:14;16.50;55.40
35497;DHT22;21609;49.298;6.844;2023-01-04T05:49:40;16.50;55.40
35497;DHT22;21609;49.298;6.844;2023-01-04T05:52:05;16.50;55.40
35497;DHT22;21609;49.298;6.844;2023-01-04T05:54:31;16.50;55.40
35497;DHT22;21609;49.298;6.844;2023-01-04T05:56:56;16.50;55.40
35497;DHT22;21609;49.298;6.844;2023-01-04T05:59:22;16.50;55.40
35497;DHT22;21609;49.298;6.844;2023-01-04T06:01:47;16.50;55.40
35497;DHT22;21609;49.298;6.844;2023-01-04T06:04:13;16.50;55.50
35497;DHT22;21609;49.298;6.844;2023-01-04T06:06:41;16.50;55.50
35497;DHT22;21609;49.298;6.844;2023-01-04T06:09:07;16.50;55.50
35497;DHT22;21609;49.298;6.844;2023-01-04T06:11:33;16.50;55.50
35497;DHT22;21609;49.298;6.844;2023-01-04T06:13:58;16.50;55.50
35497;DHT22;21609;49.298;6.844;2023-01-04T06:16:24;16.50;55.50
35497;DHT22;21609;49.298;6.844;2023-01-04T06:18:49;16.50;55.50
35497;DHT22;21609;49.298;6.844;2023-01-04T06:21:15;16.50;55.50
35497;DHT22;21609;49.298;6.844;2023-01-04T06:23:40;16.50;55.50
35497;DHT22;21609;49.298;6.844;2023-01-04T06:26:06;16.40;55.50
35497;DHT22;21609;49.298;6.844;2023-01-04T06:28:31;16.50;55.60
35497;DHT22;21609;49.298;6.844;2023-01-04T06:30:57;16.50;55.60
35497;DHT22;21609;49.298;6.844;2023-01-04T06:33:22;16.40;55.60
35497;DHT22;21609;49.298;6.844;2023-01-04T06:35:55;16.40;55.80
35497;DHT22;21609;49.298;6.844;2023-01-04T06:38:20;16.30;55.80
35497;DHT22;21609;49.298;6.844;2023-01-04T06:40:46;15.90;55.40
35497;DHT22;21609;49.298;6.844;2023-01-04T06:43:11;16.00;56.10
35497;DHT22;21609;49.298;6.844;2023-01-04T06:45:37;16.10;56.20
35497;DHT22;21609;49.298;6.844;2023-01-04T06:48:03;16.20;56.10
35497;DHT22;21609;49.298;6.844;2023-01-04T06:50:28;16.20;55.90
35497;DHT22;21609;49.298;6.844;2023-01-04T06:52:54;16.20;55.80
35497;DHT22;21609;49.298;6.844;2023-01-04T06:55:19;16.30;55.90
35497;DHT22;21609;49.298;6.844;2023-01-04T06:57:45;16.30;55.80
35497;DHT22;21609;49.298;6.844;2023-01-04T07:00:11;16.20;55.80
35497;DHT22;21609;49.298;6.844;2023-01-04T07:02:37;16.30;55.80
35497;DHT22;21609;49.298;6.844;2023-01-04T07:05:03;16.30;55.80
35497;DHT22;21609;49.298;6.844;2023-01-04T07:07:28;16.30;55.80
35497;DHT22;21609;49.298;6.844;2023-01-04T07:09:54;16.30;55.90
35497;DHT22;21609;49.298;6.844;2023-01-04T07:12:20;16.30;55.90
35497;DHT22;21609;49.298;6.844;2023-01-04T07:14:45;16.30;55.80
35497;DHT22;21609;49.298;6.844;2023-01-04T07:17:11;16.30;55.80
35497;DHT22;21609;49.298;6.844;2023-01-04T07:19:36;16.30;55.80
35497;DHT22;21609;49.298;6.844;2023-01-04T07:22:02;16.20;55.80
35497;DHT22;21609;49.298;6.844;2023-01-04T07:24:27;16.20;55.80
35497;DHT22;21609;49.298;6.844;2023-01-04T07:26:53;16.30;55.80
35497;DHT22;21609;49.298;6.844;2023-01-04T07:29:19;16.20;55.80
35497;DHT22;21609;49.298;6.844;2023-01-04T07:31:48;16.30;55.90
35497;DHT22;21609;49.298;6.844;2023-01-04T07:34:16;16.20;55.80
35497;DHT22;21609;49.298;6.844;2023-01-04T07:36:41;16.20;55.80
35497;DHT22;21609;49.298;6.844;2023-01-04T07:39:07;16.20;55.80
35497;DHT22;21609;49.298;6.844;2023-01-04T07:41:35;16.20;55.80
35497;DHT22;21609;49.298;6.844;2023-01-04T07:44:02;16.30;55.80
35497;DHT22;21609;49.298;6.844;2023-01-04T07:46:27;16.20;55.80
35497;DHT22;21609;49.298;6.844;2023-01-04T07:48:56;16.20;55.70
35497;DHT22;21609;49.298;6.844;2023-01-04T07:51:21;16.20;55.80
35497;DHT22;21609;49.298;6.844;2023-01-04T07:53:47;16.20;55.80
35497;DHT22;21609;49.298;6.844;2023-01-04T07:56:12;16.20;55.80
35497;DHT22;21609;49.298;6.844;2023-01-04T07:58:38;16.20;55.80
35497;DHT22;21609;49.298;6.844;2023-01-04T08:01:09;16.20;55.80
35497;DHT22;21609;49.298;6.844;2023-01-04T08:03:34;16.20;55.80
35497;DHT22;21609;49.298;6.844;2023-01-04T08:06:05;16.20;55.80
35497;DHT22;21609;49.298;6.844;2023-01-04T08:08:30;16.20;55.90
35497;DHT22;21609;49.298;6.844;2023-01-04T08:11:03;16.20;55.90
35497;DHT22;21609;49.298;6.844;2023-01-04T08:13:29;16.20;55.80
35497;DHT22;21609;49.298;6.844;2023-01-04T08:15:55;16.20;55.90
35497;DHT22;21609;49.298;6.844;2023-01-04T08:18:21;16.20;55.90
35497;DHT22;21609;49.298;6.844;2023-01-04T08:20:47;16.20;55.90
35497;DHT22;21609;49.298;6.844;2023-01-04T08:23:12;16.20;55.90
35497;DHT22;21609;49.298;6.844;2023-01-04T08:25:38;16.10;55.80
35497;DHT22;21609;49.298;6.844;2023-01-04T08:28:04;16.10;55.90
35497;DHT22;21609;49.298;6.844;2023-01-04T08:30:29;16.10;55.80
35497;DHT22;21609;49.298;6.844;2023-01-04T08:32:55;16.10;55.80
35497;DHT22;21609;49.298;6.844;2023-01-04T08:35:21;16.10;55.80
35497;DHT22;21609;49.298;6.844;2023-01-04T08:37:47;16.10;55.80
35497;DHT22;21609;49.298;6.844;2023-01-04T08:40:13;16.10;55.80
35497;DHT22;21609;49.298;6.844;2023-01-04T08:42:38;16.10;55.80
35497;DHT22;21609;49.298;6.844;2023-01-04T08:45:04;16.10;55.80
35497;DHT22;21609;49.298;6.844;2023-01-04T08:47:31;16.20;55.90
35497;DHT22;21609;49.298;6.844;2023-01-04T08:49:57;16.10;55.80
35497;DHT22;21609;49.298;6.844;2023-01-04T08:52:23;16.10;55.90
35497;DHT22;21609;49.298;6.844;2023-01-04T08:54:49;16.10;55.90
35497;DHT22;21609;49.298;6.844;2023-01-04T08:57:15;16.10;55.90
35497;DHT22;21609;49.298;6.844;2023-01-04T08:59:41;16.10;55.90
35497;DHT22;21609;49.298;6.844;2023-01-04T09:02:21;16.10;55.90
35497;DHT22;21609;49.298;6.844;2023-01-04T09:04:48;16.10;55.90
35497;DHT22;21609;49.298;6.844;2023-01-04T09:07:14;16.10;55.90
35497;DHT22;21609;49.298;6.844;2023-01-04T09:09:39;16.10;56.00
35497;DHT22;21609;49.298;6.844;2023-01-04T09:12:05;16.10;55.90
35497;DHT22;21609;49.298;6.844;2023-01-04T09:14:31;16.10;55.90
35497;DHT22;21609;49.298;6.844;2023-01-04T09:16:56;16.10;55.90
35497;DHT22;21609;49.298;6.844;2023-01-04T09:19:22;16.10;56.00
35497;DHT22;21609;49.298;6.844;2023-01-04T09:21:47;16.10;56.00
35497;DHT22;21609;49.298;6.844;2023-01-04T09:24:13;16.10;56.00
35497;DHT22;21609;49.298;6.844;2023-01-04T09:26:39;16.10;56.00
35497;DHT22;21609;49.298;6.844;2023-01-04T09:29:04;16.00;55.90
35497;DHT22;21609;49.298;6.844;2023-01-04T09:31:31;16.00;55.90
35497;DHT22;21609;49.298;6.844;2023-01-04T09:33:57;16.10;56.00
35497;DHT22;21609;49.298;6.844;2023-01-04T09:36:23;16.10;56.00
35497;DHT22;21609;49.298;6.844;2023-01-04T09:38:50;16.00;56.00
35497;DHT22;21609;49.298;6.844;2023-01-04T09:41:27;16.10;56.00
35497;DHT22;21609;49.298;6.844;2023-01-04T09:51:36;16.00;56.10
35497;DHT22;21609;49.298;6.844;2023-01-04T09:54:09;16.00;56.10
35497;DHT22;21609;49.298;6.844;2023-01-04T09:56:47;16.10;56.00
35497;DHT22;21609;49.298;6.844;2023-01-04T09:59:15;16.10;55.90
35497;DHT22;21609;49.298;6.844;2023-01-04T10:01:48;16.20;55.70
35497;DHT22;21609;49.298;6.844;2023-01-04T10:04:48;16.20;55.80
35497;DHT22;21609;49.298;6.844;2023-01-04T10:07:27;16.20;55.70
35497;DHT22;21609;49.298;6.844;2023-01-04T10:09:53;16.20;55.80
35497;DHT22;21609;49.298;6.844;2023-01-04T10:15:34;16.30;55.90
35497;DHT22;21609;49.298;6.844;2023-01-04T10:18:16;16.40;55.80
35497;DHT22;21609;49.298;6.844;2023-01-04T10:20:55;16.40;55.80
35497;DHT22;21609;49.298;6.844;2023-01-04T10:24:28;16.40;55.80
35497;DHT22;21609;49.298;6.844;2023-01-04T10:26:44;16.40;56.50
35497;DHT22;21609;49.298;6.844;2023-01-04T10:32:08;16.40;55.90
35497;DHT22;21609;49.298;6.844;2023-01-04T10:34:44;16.50;55.90
35497;DHT22;21609;49.298;6.844;2023-01-04T10:37:39;16.50;56.00
35497;DHT22;21609;49.298;6.844;2023-01-04T10:40:12;16.60;56.00
35497;DHT22;21609;49.298;6.844;2023-01-04T10:48:32;16.70;55.80
35497;DHT22;21609;49.298;6.844;2023-01-04T10:51:00;16.70;55.80
35497;DHT22;21609;49.298;6.844;2023-01-04T10:56:21;16.70;55.80
35497;DHT22;21609;49.298;6.844;2023-01-04T10:59:01;16.70;55.80
35497;DHT22;21609;49.298;6.844;2023-01-04T11:01:34;16.80;55.90
35497;DHT22;21609;49.298;6.844;2023-01-04T11:04:02;16.70;55.80
35497;DHT22;21609;49.298;6.844;2023-01-04T11:06:34;16.70;55.80
35497;DHT22;21609;49.298;6.844;2023-01-04T11:09:18;16.70;55.80
35497;DHT22;21609;49.298;6.844;2023-01-04T11:11:46;16.80;55.80
35497;DHT22;21609;49.298;6.844;2023-01-04T11:14:12;16.80;55.80
35497;DHT22;21609;49.298;6.844;2023-01-04T11:16:40;16.80;55.80
35497;DHT22;21609;49.298;6.844;2023-01-04T11:19:08;16.80;55.80
35497;DHT22;21609;49.298;6.844;2023-01-04T11:21:52;16.80;55.80
35497;DHT22;21609;49.298;6.844;2023-01-04T11:24:22;16.80;55.80
35497;DHT22;21609;49.298;6.844;2023-01-04T11:26:48;16.80;55.80
35497;DHT22;21609;49.298;6.844;2023-01-04T11:29:27;16.80;55.80
35497;DHT22;21609;49.298;6.844;2023-01-04T11:31:58;16.90;55.80
35497;DHT22;21609;49.298;6.844;2023-01-04T11:34:47;16.90;55.80
35497;DHT22;21609;49.298;6.844;2023-01-04T11:37:34;16.90;55.80
35497;DHT22;21609;49.298;6.844;2023-01-04T11:40:22;16.90;55.90
35497;DHT22;21609;49.298;6.844;2023-01-04T11:43:09;16.90;55.90
35497;DHT22;21609;49.298;6.844;2023-01-04T11:45:35;16.90;55.80
35497;DHT22;21609;49.298;6.844;2023-01-04T11:48:01;16.90;55.80
35497;DHT22;21609;49.298;6.844;2023-01-04T11:50:44;16.90;55.80
35497;DHT22;21609;49.298;6.844;2023-01-04T11:56:18;16.90;55.80
35497;DHT22;21609;49.298;6.844;2023-01-04T11:59:13;16.90;56.40
35497;DHT22;21609;49.298;6.844;2023-01-04T12:01:50;16.90;55.70
35497;DHT22;21609;49.298;6.844;2023-01-04T12:04:25;16.90;55.80
35497;DHT22;21609;49.298;6.844;2023-01-04T12:09:49;16.90;55.70
35497;DHT22;21609;49.298;6.844;2023-01-04T12:12:14;16.90;55.80
35497;DHT22;21609;49.298;6.844;2023-01-04T12:14:47;16.90;55.70
35497;DHT22;21609;49.298;6.844;2023-01-04T12:17:40;16.90;55.70
35497;DHT22;21609;49.298;6.844;2023-01-04T12:20:14;16.90;55.80
35497;DHT22;21609;49.298;6.844;2023-01-04T12:22:40;17.00;55.80
35497;DHT22;21609;49.298;6.844;2023-01-04T12:25:39;16.90;55.70
35497;DHT22;21609;49.298;6.844;2023-01-04T12:28:28;16.90;55.70
35497;DHT22;21609;49.298;6.844;2023-01-04T12:30:53;16.90;55.70
35497;DHT22;21609;49.298;6.844;2023-01-04T12:36:04;17.00;55.80
35497;DHT22;21609;49.298;6.844;2023-01-04T12:41:22;17.00;55.80
35497;DHT22;21609;49.298;6.844;2023-01-04T12:43:48;17.00;55.70
35497;DHT22;21609;49.298;6.844;2023-01-04T13:00:00;17.00;55.70
35497;DHT22;21609;49.298;6.844;2023-01-04T13:02:32;17.00;55.70
35497;DHT22;21609;49.298;6.844;2023-01-04T13:05:00;17.00;55.70
35497;DHT22;21609;49.298;6.844;2023-01-04T13:18:32;17.00;55.70
35497;DHT22;21609;49.298;6.844;2023-01-04T13:21:01;17.00;55.70
35497;DHT22;21609;49.298;6.844;2023-01-04T13:23:28;17.00;56.30
35497;DHT22;21609;49.298;6.844;2023-01-04T13:25:54;17.20;55.50
35497;DHT22;21609;49.298;6.844;2023-01-04T13:28:19;17.60;54.80
35497;DHT22;21609;49.298;6.844;2023-01-04T13:30:45;17.70;54.50
35497;DHT22;21609;49.298;6.844;2023-01-04T13:33:19;17.70;54.50
35497;DHT22;21609;49.298;6.844;2023-01-04T13:36:02;17.80;54.50
35497;DHT22;21609;49.298;6.844;2023-01-04T13:38:29;18.00;54.20
35497;DHT22;21609;49.298;6.844;2023-01-04T13:40:56;18.10;54.00
35497;DHT22;21609;49.298;6.844;2023-01-04T13:44:08;18.20;54.00
35497;DHT22;21609;49.298;6.844;2023-01-04T13:46:35;18.20;54.00
35497;DHT22;21609;49.298;6.844;2023-01-04T13:49:01;18.20;54.10
35497;DHT22;21609;49.298;6.844;2023-01-04T13:51:30;18.20;54.00
35497;DHT22;21609;49.298;6.844;2023-01-04T13:54:03;18.20;54.10
35497;DHT22;21609;49.298;6.844;2023-01-04T13:56:33;18.30;54.10
35497;DHT22;21609;49.298;6.844;2023-01-04T13:58:59;18.30;54.20
35497;DHT22;21609;49.298;6.844;2023-01-04T14:01:36;18.30;54.20
35497;DHT22;21609;49.298;6.844;2023-01-04T14:04:05;18.30;54.20
35497;DHT22;21609;49.298;6.844;2023-01-04T14:06:43;18.30;54.20
35497;DHT22;21609;49.298;6.844;2023-01-04T14:16:49;18.40;54.30
35497;DHT22;21609;49.298;6.844;2023-01-04T14:24:53;18.40;54.30
35497;DHT22;21609;49.298;6.844;2023-01-04T14:27:39;18.50;54.30
35497;DHT22;21609;49.298;6.844;2023-01-04T14:33:01;18.50;54.30
35497;DHT22;21609;49.298;6.844;2023-01-04T14:35:29;18.50;54.30
35497;DHT22;21609;49.298;6.844;2023-01-04T14:38:01;18.50;54.40
35497;DHT22;21609;49.298;6.844;2023-01-04T14:40:29;18.50;54.30
35497;DHT22;21609;49.298;6.844;2023-01-04T14:42:57;18.60;54.30
35497;DHT22;21609;49.298;6.844;2023-01-04T14:45:23;18.60;54.20
35497;DHT22;21609;49.298;6.844;2023-01-04T14:47:49;18.60;54.30
35497;DHT22;21609;49.298;6.844;2023-01-04T14:50:15;18.60;54.20
35497;DHT22;21609;49.298;6.844;2023-01-04T14:52:49;18.70;54.20
35497;DHT22;21609;49.298;6.844;2023-01-04T14:55:15;18.70;54.20
35497;DHT22;21609;49.298;6.844;2023-01-04T14:57:41;18.70;54.20
35497;DHT22;21609;49.298;6.844;2023-01-04T15:00:14;18.80;54.30
35497;DHT22;21609;49.298;6.844;2023-01-04T15:02:40;18.90;54.30
35497;DHT22;21609;49.298;6.844;2023-01-04T15:05:06;18.90;54.30
35497;DHT22;21609;49.298;6.844;2023-01-04T15:07:37;18.80;54.20
35497;DHT22;21609;49.298;6.844;2023-01-04T15:10:07;18.80;54.90
35497;DHT22;21609;49.298;6.844;2023-01-04T15:12:39;18.90;54.40
35497;DHT22;21609;49.298;6.844;2023-01-04T15:15:05;18.90;54.30
35497;DHT22;21609;49.298;6.844;2023-01-04T15:17:31;18.90;54.30
35497;DHT22;21609;49.298;6.844;2023-01-04T15:19:57;18.80;54.50
35497;DHT22;21609;49.298;6.844;2023-01-04T15:22:22;18.80;54.60
35497;DHT22;21609;49.298;6.844;2023-01-04T15:24:48;18.80;54.70
35497;DHT22;21609;49.298;6.844;2023-01-04T15:27:13;18.80;54.60
35497;DHT22;21609;49.298;6.844;2023-01-04T15:29:39;18.80;54.70
35497;DHT22;21609;49.298;6.844;2023-01-04T15:32:04;18.80;54.70
35497;DHT22;21609;49.298;6.844;2023-01-04T15:34:30;18.90;54.80
35497;DHT22;21609;49.298;6.844;2023-01-04T15:36:55;18.80;54.80
35497;DHT22;21609;49.298;6.844;2023-01-04T15:39:21;18.80;54.70
35497;DHT22;21609;49.298;6.844;2023-01-04T15:41:46;18.90;54.80
35497;DHT22;21609;49.298;6.844;2023-01-04T15:44:31;18.90;54.80
35497;DHT22;21609;49.298;6.844;2023-01-04T15:46:56;18.80;54.80
35497;DHT22;21609;49.298;6.844;2023-01-04T15:49:23;18.90;54.80
35497;DHT22;21609;49.298;6.844;2023-01-04T15:51:49;18.80;54.70
35497;DHT22;21609;49.298;6.844;2023-01-04T15:54:14;18.90;54.80
35497;DHT22;21609;49.298;6.844;2023-01-04T15:56:41;18.90;54.80
35497;DHT22;21609;49.298;6.844;2023-01-04T15:59:07;19.00;54.70
35497;DHT22;21609;49.298;6.844;2023-01-04T16:01:33;18.90;54.80
35497;DHT22;21609;49.298;6.844;2023-01-04T16:03:58;18.90;55.00
35497;DHT22;21609;49.298;6.844;2023-01-04T16:06:24;18.90;55.00
35497;DHT22;21609;49.298;6.844;2023-01-04T16:08:51;18.90;55.00
35497;DHT22;21609;49.298;6.844;2023-01-04T16:11:22;18.90;55.00
35497;DHT22;21609;49.298;6.844;2023-01-04T16:13:48;18.90;55.00
35497;DHT22;21609;49.298;6.844;2023-01-04T16:16:14;19.10;55.50
35497;DHT22;21609;49.298;6.844;2023-01-04T16:18:50;19.10;54.90
35497;DHT22;21609;49.298;6.844;2023-01-04T16:21:22;19.10;54.90
35497;DHT22;21609;49.298;6.844;2023-01-04T16:23:57;19.10;54.90
35497;DHT22;21609;49.298;6.844;2023-01-04T16:26:23;19.20;54.90
35497;DHT22;21609;49.298;6.844;2023-01-04T16:28:49;19.20;54.80
35497;DHT22;21609;49.298;6.844;2023-01-04T16:31:16;19.20;54.80
35497;DHT22;21609;49.298;6.844;2023-01-04T16:33:41;19.20;54.80
35497;DHT22;21609;49.298;6.844;2023-01-04T16:36:12;19.20;54.70
35497;DHT22;21609;49.298;6.844;2023-01-04T16:38:39;19.20;54.70
35497;DHT22;21609;49.298;6.844;2023-01-04T16:41:06;19.20;54.80
35497;DHT22;21609;49.298;6.844;2023-01-04T16:43:41;19.20;54.70
35497;DHT22;21609;49.298;6.844;2023-01-04T16:46:14;19.30;54.70
35497;DHT22;21609;49.298;6.844;2023-01-04T16:48:55;19.40;54.50
35497;DHT22;21609;49.298;6.844;2023-01-04T16:51:23;19.40;54.40
35497;DHT22;21609;49.298;6.844;2023-01-04T16:53:49;19.40;54.20
35497;DHT22;21609;49.298;6.844;2023-01-04T16:56:17;19.40;54.30
35497;DHT22;21609;49.298;6.844;2023-01-04T16:58:43;19.40;54.30
35497;DHT22;21609;49.298;6.844;2023-01-04T17:01:13;19.40;54.20
35497;DHT22;21609;49.298;6.844;2023-01-04T17:03:40;19.40;54.20
35497;DHT22;21609;49.298;6.844;2023-01-04T17:06:08;19.40;54.30
35497;DHT22;21609;49.298;6.844;2023-01-04T17:08:34;19.40;54.20
35497;DHT22;21609;49.298;6.844;2023-01-04T17:11:08;19.40;54.40
35497;DHT22;21609;49.298;6.844;2023-01-04T17:13:34;19.40;54.30
35497;DHT22;21609;49.298;6.844;2023-01-04T17:16:01;19.30;54.40
35497;DHT22;21609;49.298;6.844;2023-01-04T17:18:27;19.30;54.50
35497;DHT22;21609;49.298;6.844;2023-01-04T17:20:54;19.30;54.50
35497;DHT22;21609;49.298;6.844;2023-01-04T17:23:21;19.30;54.50
35497;DHT22;21609;49.298;6.844;2023-01-04T17:25:47;19.30;54.50
35497;DHT22;21609;49.298;6.844;2023-01-04T17:28:12;19.40;54.50
35497;DHT22;21609;49.298;6.844;2023-01-04T17:30:38;19.40;54.50
35497;DHT22;21609;49.298;6.844;2023-01-04T17:33:04;19.30;54.20